sensor_id;sensor_type;location;lat;lon;timestamp;temperature;humidity
10583;DHT22;33679;51.218;6.786;2023-05-19T00:00:22;15.40;99.90
10583;DHT22;33679;51.218;6.786;2023-05-19T00:02:56;15.40;99.90
10583;DHT22;33679;51.218;6.786;2023-05-19T00:05:30;15.40;99.90
10583;DHT22;33679;51.218;6.786;2023-05-19T00:08:05;15.40;99.90
10583;DHT22;33679;51.218;6.786;2023-05-19T00:10:39;15.40;99.90
10583;DHT22;33679;51.218;6.786;2023-05-19T00:13:12;15.40;99.90
10583;DHT22;33679;51.218;6.786;2023-05-19T00:15:47;15.30;99.90
10583;DHT22;33679;51.218;6.786;2023-05-19T00:18:20;15.30;99.90
10583;DHT22;33679;51.218;6.786;2023-05-19T00:20:53;15.30;99.90
10583;DHT22;33679;51.218;6.786;2023-05-19T00:23:30;15.30;99.90
10583;DHT22;33679;51.218;6.786;2023-05-19T00:26:02;15.20;99.90
10583;DHT22;33679;51.218;6.786;2023-05-19T00:28:35;15.20;99.90
10583;DHT22;33679;51.218;6.786;2023-05-19T00:31:07;15.20;99.90
10583;DHT22;33679;51.218;6.786;2023-05-19T00:33:40;15.20;99.90
10583;DHT22;33679;51.218;6.786;2023-05-19T00:36:12;15.20;99.90
10583;DHT22;33679;51.218;6.786;2023-05-19T00:38:46;15.20;99.90
10583;DHT22;33679;51.218;6.786;2023-05-19T00:41:18;15.20;99.90
10583;DHT22;33679;51.218;6.786;2023-05-19T00:43:51;15.30;99.90
10583;DHT22;33679;51.218;6.786;2023-05-19T00:46:23;15.30;99.90
10583;DHT22;33679;51.218;6.786;2023-05-19T00:48:58;15.30;99.90
10583;DHT22;33679;51.218;6.786;2023-05-19T00:51:32;15.20;99.90
10583;DHT22;33679;51.218;6.786;2023-05-19T00:54:09;15.10;99.90
10583;DHT22;33679;51.218;6.786;2023-05-19T00:56:42;15.10;99.90
10583;DHT22;33679;51.218;6.786;2023-05-19T00:59:17;15.10;99.90
10583;DHT22;33679;51.218;6.786;2023-05-19T01:01:50;15.10;99.90
10583;DHT22;33679;51.218;6.786;2023-05-19T01:04:23;15.10;99.90
10583;DHT22;33679;51.218;6.786;2023-05-19T01:06:56;15.10;99.90
10583;DHT22;33679;51.218;6.786;2023-05-19T01:09:30;15.00;99.90
10583;DHT22;33679;51.218;6.786;2023-05-19T01:12:05;15.00;99.90
10583;DHT22;33679;51.218;6.786;2023-05-19T01:14:37;15.00;99.90
10583;DHT22;33679;51.218;6.786;2023-05-19T01:17:15;15.00;99.90
10583;DHT22;33679;51.218;6.786;2023-05-19T01:19:56;14.90;99.90
10583;DHT22;33679;51.218;6.786;2023-05-19T01:22:58;14.90;99.90
10583;DHT22;33679;51.218;6.786;2023-05-19T01:31:59;14.80;99.90
10583;DHT22;33679;51.218;6.786;2023-05-19T01:34:38;14.80;99.90
10583;DHT22;33679;51.218;6.786;2023-05-19T01:37:16;14.80;99.90
10583;DHT22;33679;51.218;6.786;2023-05-19T01:39:51;14.80;99.90
10583;DHT22;33679;51.218;6.786;2023-05-19T01:42:26;14.80;99.90
10583;DHT22;33679;51.218;6.786;2023-05-19T01:45:00;14.80;99.90
10583;DHT22;33679;51.218;6.786;2023-05-19T01:47:34;14.80;99.90
10583;DHT22;33679;51.218;6.786;2023-05-19T01:50:09;14.70;99.90
10583;DHT22;33679;51.218;6.786;2023-05-19T01:52:41;14.70;99.90
10583;DHT22;33679;51.218;6.786;2023-05-19T01:55:14;14.70;99.90
10583;DHT22;33679;51.218;6.786;2023-05-19T01:58:00;14.60;99.90
10583;DHT22;33679;51.218;6.786;2023-05-19T02:00:44;14.60;99.90
10583;DHT22;33679;51.218;6.786;2023-05-19T02:03:29;14.60;99.90
10583;DHT22;33679;51.218;6.786;2023-05-19T02:06:19;14.60;99.90
10583;DHT22;33679;51.218;6.786;2023-05-19T02:08:57;14.60;99.90
10583;DHT22;33679;51.218;6.786;2023-05-19T02:11:36;14.50;99.90
10583;DHT22;33679;51.218;6.786;2023-05-19T02:14:16;14.40;99.90
10583;DHT22;33679;51.218;6.786;2023-05-19T02:16:51;14.40;99.90
10583;DHT22;33679;51.218;6.786;2023-05-19T02:19:29;14.30;99.90
10583;DHT22;33679;51.218;6.786;2023-05-19T02:22:02;14.30;99.90
10583;DHT22;33679;51.218;6.786;2023-05-19T02:24:34;14.20;99.90
10583;DHT22;33679;51.218;6.786;2023-05-19T02:27:07;14.20;99.90
10583;DHT22;33679;51.218;6.786;2023-05-19T02:29:40;14.20;99.90
10583;DHT22;33679;51.218;6.786;2023-05-19T02:32:13;14.20;99.90
10583;DHT22;33679;51.218;6.786;2023-05-19T02:34:47;14.20;99.90
10583;DHT22;33679;51.218;6.786;2023-05-19T02:37:19;14.20;99.90
10583;DHT22;33679;51.218;6.786;2023-05-19T02:39:53;14.20;99.90
10583;DHT22;33679;51.218;6.786;2023-05-19T02:42:26;14.20;99.90
10583;DHT22;33679;51.218;6.786;2023-05-19T02:44:59;14.20;99.90
10583;DHT22;33679;51.218;6.786;2023-05-19T02:47:31;14.20;99.90
10583;DHT22;33679;51.218;6.786;2023-05-19T02:50:07;14.10;99.90
10583;DHT22;33679;51.218;6.786;2023-05-19T02:52:40;14.10;99.90
10583;DHT22;33679;51.218;6.786;2023-05-19T02:55:12;14.10;99.90
10583;DHT22;33679;51.218;6.786;2023-05-19T02:57:47;14.10;99.90
10583;DHT22;33679;51.218;6.786;2023-05-19T03:00:22;14.00;99.90
10583;DHT22;33679;51.218;6.786;2023-05-19T03:02:55;14.00;99.90
10583;DHT22;33679;51.218;6.786;2023-05-19T03:05:34;13.90;99.90
10583;DHT22;33679;51.218;6.786;2023-05-19T03:08:07;13.80;99.90
10583;DHT22;33679;51.218;6.786;2023-05-19T03:10:40;13.80;99.90
10583;DHT22;33679;51.218;6.786;2023-05-19T03:13:12;13.80;99.90
10583;DHT22;33679;51.218;6.786;2023-05-19T03:15:47;13.90;99.90
10583;DHT22;33679;51.218;6.786;2023-05-19T03:18:21;13.90;99.90
10583;DHT22;33679;51.218;6.786;2023-05-19T03:20:55;13.90;99.90
10583;DHT22;33679;51.218;6.786;2023-05-19T03:23:28;13.80;99.90
10583;DHT22;33679;51.218;6.786;2023-05-19T03:26:01;13.80;99.90
10583;DHT22;33679;51.218;6.786;2023-05-19T03:28:34;13.80;99.90
10583;DHT22;33679;51.218;6.786;2023-05-19T03:31:07;13.70;99.90
10583;DHT22;33679;51.218;6.786;2023-05-19T03:33:42;13.70;99.90
10583;DHT22;33679;51.218;6.786;2023-05-19T03:36:17;13.70;99.90
10583;DHT22;33679;51.218;6.786;2023-05-19T03:38:54;13.70;99.90
10583;DHT22;33679;51.218;6.786;2023-05-19T03:41:26;13.70;99.90
10583;DHT22;33679;51.218;6.786;2023-05-19T03:43:59;13.70;99.90
10583;DHT22;33679;51.218;6.786;2023-05-19T03:46:32;13.70;99.90
10583;DHT22;33679;51.218;6.786;2023-05-19T03:49:18;13.70;99.90
10583;DHT22;33679;51.218;6.786;2023-05-19T03:52:11;13.70;99.90
10583;DHT22;33679;51.218;6.786;2023-05-19T03:54:56;13.80;99.90
10583;DHT22;33679;51.218;6.786;2023-05-19T03:57:28;13.80;99.90
10583;DHT22;33679;51.218;6.786;2023-05-19T04:00:02;13.80;99.90
10583;DHT22;33679;51.218;6.786;2023-05-19T04:02:43;13.80;99.90
10583;DHT22;33679;51.218;6.786;2023-05-19T04:05:15;13.90;99.90
10583;DHT22;33679;51.218;6.786;2023-05-19T04:07:51;13.90;99.90
10583;DHT22;33679;51.218;6.786;2023-05-19T04:10:23;13.90;99.90
10583;DHT22;33679;51.218;6.786;2023-05-19T04:12:58;13.90;99.90
10583;DHT22;33679;51.218;6.786;2023-05-19T04:15:31;13.90;99.90
10583;DHT22;33679;51.218;6.786;2023-05-19T04:18:03;14.00;99.90
10583;DHT22;33679;51.218;6.786;2023-05-19T04:20:36;13.90;99.90
10583;DHT22;33679;51.218;6.786;2023-05-19T04:23:13;13.90;99.90
10583;DHT22;33679;51.218;6.786;2023-05-19T04:25:45;13.90;99.90
10583;DHT22;33679;51.218;6.786;2023-05-19T04:28:18;13.90;99.90
10583;DHT22;33679;51.218;6.786;2023-05-19T04:30:53;13.90;99.90
10583;DHT22;33679;51.218;6.786;2023-05-19T04:33:28;13.90;99.90
10583;DHT22;33679;51.218;6.786;2023-05-19T04:36:02;13.90;99.90
10583;DHT22;33679;51.218;6.786;2023-05-19T04:38:39;13.80;99.90
10583;DHT22;33679;51.218;6.786;2023-05-19T04:41:16;13.70;99.90
10583;DHT22;33679;51.218;6.786;2023-05-19T04:43:49;13.70;99.90
10583;DHT22;33679;51.218;6.786;2023-05-19T04:46:24;13.80;99.90
10583;DHT22;33679;51.218;6.786;2023-05-19T04:48:58;13.80;99.90
10583;DHT22;33679;51.218;6.786;2023-05-19T04:51:33;13.80;99.90
10583;DHT22;33679;51.218;6.786;2023-05-19T04:54:11;13.80;99.90
10583;DHT22;33679;51.218;6.786;2023-05-19T04:56:44;13.90;99.90
10583;DHT22;33679;51.218;6.786;2023-05-19T04:59:16;14.00;99.90
10583;DHT22;33679;51.218;6.786;2023-05-19T05:01:49;14.10;99.90
10583;DHT22;33679;51.218;6.786;2023-05-19T05:04:22;14.10;99.90
10583;DHT22;33679;51.218;6.786;2023-05-19T05:06:55;14.20;99.90
10583;DHT22;33679;51.218;6.786;2023-05-19T05:09:30;14.30;99.90
10583;DHT22;33679;51.218;6.786;2023-05-19T05:12:05;14.30;99.90
10583;DHT22;33679;51.218;6.786;2023-05-19T05:14:40;14.40;99.90
10583;DHT22;33679;51.218;6.786;2023-05-19T05:17:14;14.40;99.90
10583;DHT22;33679;51.218;6.786;2023-05-19T05:19:50;14.50;99.90
10583;DHT22;33679;51.218;6.786;2023-05-19T05:22:23;14.60;99.90
10583;DHT22;33679;51.218;6.786;2023-05-19T05:24:59;14.70;99.90
10583;DHT22;33679;51.218;6.786;2023-05-19T05:27:32;14.80;99.90
10583;DHT22;33679;51.218;6.786;2023-05-19T05:30:06;15.00;99.90
10583;DHT22;33679;51.218;6.786;2023-05-19T05:32:42;15.20;99.90
10583;DHT22;33679;51.218;6.786;2023-05-19T05:35:30;15.30;99.90
10583;DHT22;33679;51.218;6.786;2023-05-19T05:38:13;15.40;99.90
10583;DHT22;33679;51.218;6.786;2023-05-19T05:40:47;15.50;99.90
10583;DHT22;33679;51.218;6.786;2023-05-19T05:43:20;15.60;99.90
10583;DHT22;33679;51.218;6.786;2023-05-19T05:45:59;15.80;99.90
10583;DHT22;33679;51.218;6.786;2023-05-19T05:48:33;15.80;99.90
10583;DHT22;33679;51.218;6.786;2023-05-19T05:51:06;15.90;99.90
10583;DHT22;33679;51.218;6.786;2023-05-19T05:53:40;16.00;99.90
10583;DHT22;33679;51.218;6.786;2023-05-19T05:56:25;16.50;99.90
10583;DHT22;33679;51.218;6.786;2023-05-19T05:59:02;17.40;99.90
10583;DHT22;33679;51.218;6.786;2023-05-19T06:01:37;18.50;99.90
10583;DHT22;33679;51.218;6.786;2023-05-19T06:04:14;19.60;99.90
10583;DHT22;33679;51.218;6.786;2023-05-19T06:06:47;20.10;99.90
10583;DHT22;33679;51.218;6.786;2023-05-19T06:09:24;20.30;99.90
10583;DHT22;33679;51.218;6.786;2023-05-19T06:11:58;20.40;99.90
10583;DHT22;33679;51.218;6.786;2023-05-19T06:14:34;20.30;99.90
10583;DHT22;33679;51.218;6.786;2023-05-19T06:17:26;20.10;99.90
10583;DHT22;33679;51.218;6.786;2023-05-19T06:19:58;19.80;99.90
10583;DHT22;33679;51.218;6.786;2023-05-19T06:22:32;19.40;99.90
10583;DHT22;33679;51.218;6.786;2023-05-19T06:25:08;19.10;99.90
10583;DHT22;33679;51.218;6.786;2023-05-19T06:27:42;18.90;99.90
10583;DHT22;33679;51.218;6.786;2023-05-19T06:30:14;18.80;99.90
10583;DHT22;33679;51.218;6.786;2023-05-19T06:33:08;18.70;99.90
10583;DHT22;33679;51.218;6.786;2023-05-19T06:35:41;18.50;99.90
10583;DHT22;33679;51.218;6.786;2023-05-19T06:38:14;18.40;99.90
10583;DHT22;33679;51.218;6.786;2023-05-19T06:40:47;18.30;99.90
10583;DHT22;33679;51.218;6.786;2023-05-19T06:43:22;18.30;99.90
10583;DHT22;33679;51.218;6.786;2023-05-19T06:46:01;18.20;99.90
10583;DHT22;33679;51.218;6.786;2023-05-19T06:48:35;18.20;99.90
10583;DHT22;33679;51.218;6.786;2023-05-19T06:51:08;18.10;99.90
10583;DHT22;33679;51.218;6.786;2023-05-19T06:53:44;18.10;99.90
10583;DHT22;33679;51.218;6.786;2023-05-19T06:56:17;18.10;99.90
10583;DHT22;33679;51.218;6.786;2023-05-19T06:58:51;18.10;99.90
10583;DHT22;33679;51.218;6.786;2023-05-19T07:01:29;18.00;99.90
10583;DHT22;33679;51.218;6.786;2023-05-19T07:04:04;18.00;99.90
10583;DHT22;33679;51.218;6.786;2023-05-19T07:06:38;17.90;99.90
10583;DHT22;33679;51.218;6.786;2023-05-19T07:09:11;18.00;99.90
10583;DHT22;33679;51.218;6.786;2023-05-19T07:11:46;18.00;99.90
10583;DHT22;33679;51.218;6.786;2023-05-19T07:14:21;18.00;99.90
10583;DHT22;33679;51.218;6.786;2023-05-19T07:16:53;18.10;99.90
10583;DHT22;33679;51.218;6.786;2023-05-19T07:19:26;18.10;99.90
10583;DHT22;33679;51.218;6.786;2023-05-19T07:21:58;18.10;99.90
10583;DHT22;33679;51.218;6.786;2023-05-19T07:24:31;18.10;99.90
10583;DHT22;33679;51.218;6.786;2023-05-19T07:27:04;18.10;99.90
10583;DHT22;33679;51.218;6.786;2023-05-19T07:29:40;18.10;99.90
10583;DHT22;33679;51.218;6.786;2023-05-19T07:32:12;18.00;99.90
10583;DHT22;33679;51.218;6.786;2023-05-19T07:34:46;18.00;99.90
10583;DHT22;33679;51.218;6.786;2023-05-19T07:37:20;18.00;99.90
10583;DHT22;33679;51.218;6.786;2023-05-19T07:39:52;18.00;99.90
10583;DHT22;33679;51.218;6.786;2023-05-19T07:42:25;18.00;99.90
10583;DHT22;33679;51.218;6.786;2023-05-19T07:44:59;18.10;99.90
10583;DHT22;33679;51.218;6.786;2023-05-19T07:47:35;18.10;99.90
10583;DHT22;33679;51.218;6.786;2023-05-19T07:50:07;18.10;99.90
10583;DHT22;33679;51.218;6.786;2023-05-19T07:52:41;18.20;99.90
10583;DHT22;33679;51.218;6.786;2023-05-19T07:55:15;18.20;99.90
10583;DHT22;33679;51.218;6.786;2023-05-19T07:57:48;18.20;99.90
10583;DHT22;33679;51.218;6.786;2023-05-19T08:00:22;18.20;99.90
10583;DHT22;33679;51.218;6.786;2023-05-19T08:02:56;18.30;99.90
10583;DHT22;33679;51.218;6.786;2023-05-19T08:05:33;18.40;99.90
10583;DHT22;33679;51.218;6.786;2023-05-19T08:08:05;18.40;99.90
10583;DHT22;33679;51.218;6.786;2023-05-19T08:10:38;18.50;99.90
10583;DHT22;33679;51.218;6.786;2023-05-19T08:13:10;18.50;99.90
10583;DHT22;33679;51.218;6.786;2023-05-19T08:15:44;18.60;99.90
10583;DHT22;33679;51.218;6.786;2023-05-19T08:18:17;18.50;99.90
10583;DHT22;33679;51.218;6.786;2023-05-19T08:20:50;18.50;99.90
10583;DHT22;33679;51.218;6.786;2023-05-19T08:23:25;18.50;99.90
10583;DHT22;33679;51.218;6.786;2023-05-19T08:25:58;18.50;99.90
10583;DHT22;33679;51.218;6.786;2023-05-19T08:28:31;18.50;99.90
10583;DHT22;33679;51.218;6.786;2023-05-19T08:31:05;18.50;99.90
10583;DHT22;33679;51.218;6.786;2023-05-19T08:33:37;18.50;99.90
10583;DHT22;33679;51.218;6.786;2023-05-19T08:36:10;18.60;99.90
10583;DHT22;33679;51.218;6.786;2023-05-19T08:38:43;18.60;99.90
10583;DHT22;33679;51.218;6.786;2023-05-19T08:41:16;18.60;99.90
10583;DHT22;33679;51.218;6.786;2023-05-19T08:43:48;18.70;99.90
10583;DHT22;33679;51.218;6.786;2023-05-19T08:46:24;18.70;99.90
10583;DHT22;33679;51.218;6.786;2023-05-19T08:48:59;18.70;99.90
10583;DHT22;33679;51.218;6.786;2023-05-19T08:51:37;18.70;99.80
10583;DHT22;33679;51.218;6.786;2023-05-19T08:54:13;18.60;99.90
10583;DHT22;33679;51.218;6.786;2023-05-19T08:56:46;18.60;99.90
10583;DHT22;33679;51.218;6.786;2023-05-19T08:59:21;18.70;99.90
10583;DHT22;33679;51.218;6.786;2023-05-19T09:01:55;18.80;99.90
10583;DHT22;33679;51.218;6.786;2023-05-19T09:04:28;18.80;99.70
10583;DHT22;33679;51.218;6.786;2023-05-19T09:07:01;18.90;99.60
10583;DHT22;33679;51.218;6.786;2023-05-19T09:09:33;18.90;99.50
10583;DHT22;33679;51.218;6.786;2023-05-19T09:12:09;18.90;99.60
10583;DHT22;33679;51.218;6.786;2023-05-19T09:14:44;18.90;99.80
10583;DHT22;33679;51.218;6.786;2023-05-19T09:17:17;18.90;99.90
10583;DHT22;33679;51.218;6.786;2023-05-19T09:19:50;19.00;99.90
10583;DHT22;33679;51.218;6.786;2023-05-19T09:22:23;19.00;99.40
10583;DHT22;33679;51.218;6.786;2023-05-19T09:24:56;19.10;99.40
10583;DHT22;33679;51.218;6.786;2023-05-19T09:27:30;19.20;99.30
10583;DHT22;33679;51.218;6.786;2023-05-19T09:30:09;19.30;99.00
10583;DHT22;33679;51.218;6.786;2023-05-19T09:32:43;19.40;99.10
10583;DHT22;33679;51.218;6.786;2023-05-19T09:35:19;19.50;99.10
10583;DHT22;33679;51.218;6.786;2023-05-19T09:37:51;19.50;98.90
10583;DHT22;33679;51.218;6.786;2023-05-19T09:40:27;19.50;98.90
10583;DHT22;33679;51.218;6.786;2023-05-19T09:43:04;19.50;98.90
10583;DHT22;33679;51.218;6.786;2023-05-19T09:45:39;19.50;98.70
10583;DHT22;33679;51.218;6.786;2023-05-19T09:48:16;19.50;98.90
10583;DHT22;33679;51.218;6.786;2023-05-19T09:50:48;19.60;98.60
10583;DHT22;33679;51.218;6.786;2023-05-19T09:53:23;19.50;98.30
10583;DHT22;33679;51.218;6.786;2023-05-19T09:55:56;19.50;98.50
10583;DHT22;33679;51.218;6.786;2023-05-19T09:58:31;19.50;98.80
10583;DHT22;33679;51.218;6.786;2023-05-19T10:01:07;19.60;98.40
10583;DHT22;33679;51.218;6.786;2023-05-19T10:03:44;19.60;98.60
10583;DHT22;33679;51.218;6.786;2023-05-19T10:06:16;19.60;98.70
10583;DHT22;33679;51.218;6.786;2023-05-19T10:08:52;19.50;98.70
10583;DHT22;33679;51.218;6.786;2023-05-19T10:11:26;19.60;98.50
10583;DHT22;33679;51.218;6.786;2023-05-19T10:14:01;19.70;98.50
10583;DHT22;33679;51.218;6.786;2023-05-19T10:16:35;19.70;98.50
10583;DHT22;33679;51.218;6.786;2023-05-19T10:19:11;19.80;98.30
10583;DHT22;33679;51.218;6.786;2023-05-19T10:21:44;19.90;98.10
10583;DHT22;33679;51.218;6.786;2023-05-19T10:24:18;20.00;98.20
10583;DHT22;33679;51.218;6.786;2023-05-19T10:26:54;20.00;98.40
10583;DHT22;33679;51.218;6.786;2023-05-19T10:29:31;19.90;98.50
10583;DHT22;33679;51.218;6.786;2023-05-19T10:32:10;19.90;98.40
10583;DHT22;33679;51.218;6.786;2023-05-19T10:35:03;19.90;98.30
10583;DHT22;33679;51.218;6.786;2023-05-19T10:37:44;19.90;98.10
10583;DHT22;33679;51.218;6.786;2023-05-19T10:40:27;20.00;97.90
10583;DHT22;33679;51.218;6.786;2023-05-19T10:43:07;19.80;98.10
10583;DHT22;33679;51.218;6.786;2023-05-19T10:45:48;19.80;98.10
10583;DHT22;33679;51.218;6.786;2023-05-19T10:48:24;19.80;98.40
10583;DHT22;33679;51.218;6.786;2023-05-19T10:50:58;19.90;98.10
10583;DHT22;33679;51.218;6.786;2023-05-19T10:53:32;19.90;98.20
10583;DHT22;33679;51.218;6.786;2023-05-19T10:56:07;20.00;98.10
10583;DHT22;33679;51.218;6.786;2023-05-19T10:58:48;20.00;98.00
10583;DHT22;33679;51.218;6.786;2023-05-19T11:01:22;20.10;98.00
10583;DHT22;33679;51.218;6.786;2023-05-19T11:04:05;20.00;98.20
10583;DHT22;33679;51.218;6.786;2023-05-19T11:06:40;20.00;98.30
10583;DHT22;33679;51.218;6.786;2023-05-19T11:09:24;20.00;97.90
10583;DHT22;33679;51.218;6.786;2023-05-19T11:12:01;20.10;98.00
10583;DHT22;33679;51.218;6.786;2023-05-19T11:14:34;20.20;98.00
10583;DHT22;33679;51.218;6.786;2023-05-19T11:17:12;20.20;98.10
10583;DHT22;33679;51.218;6.786;2023-05-19T11:19:52;20.30;98.10
10583;DHT22;33679;51.218;6.786;2023-05-19T11:22:26;20.30;98.00
10583;DHT22;33679;51.218;6.786;2023-05-19T11:24:59;20.40;97.90
10583;DHT22;33679;51.218;6.786;2023-05-19T11:27:32;20.40;97.80
10583;DHT22;33679;51.218;6.786;2023-05-19T11:30:11;20.50;97.90
10583;DHT22;33679;51.218;6.786;2023-05-19T11:32:47;20.50;97.70
10583;DHT22;33679;51.218;6.786;2023-05-19T11:35:22;20.50;97.60
10583;DHT22;33679;51.218;6.786;2023-05-19T11:37:58;20.50;97.60
10583;DHT22;33679;51.218;6.786;2023-05-19T11:40:31;20.50;97.60
10583;DHT22;33679;51.218;6.786;2023-05-19T11:43:05;20.50;97.60
10583;DHT22;33679;51.218;6.786;2023-05-19T11:45:38;20.60;97.50
10583;DHT22;33679;51.218;6.786;2023-05-19T11:48:14;20.60;97.50
10583;DHT22;33679;51.218;6.786;2023-05-19T11:50:51;20.60;97.20
10583;DHT22;33679;51.218;6.786;2023-05-19T11:53:25;20.60;97.20
10583;DHT22;33679;51.218;6.786;2023-05-19T11:56:02;20.80;97.00
10583;DHT22;33679;51.218;6.786;2023-05-19T11:58:37;20.80;97.10
10583;DHT22;33679;51.218;6.786;2023-05-19T12:01:10;20.90;97.00
10583;DHT22;33679;51.218;6.786;2023-05-19T12:03:44;21.20;96.90
10583;DHT22;33679;51.218;6.786;2023-05-19T12:06:17;21.20;96.70
10583;DHT22;33679;51.218;6.786;2023-05-19T12:08:53;21.20;96.60
10583;DHT22;33679;51.218;6.786;2023-05-19T12:11:28;21.10;96.50
10583;DHT22;33679;51.218;6.786;2023-05-19T12:14:01;21.00;96.90
10583;DHT22;33679;51.218;6.786;2023-05-19T12:16:34;21.00;97.10
10583;DHT22;33679;51.218;6.786;2023-05-19T12:19:07;21.00;97.00
10583;DHT22;33679;51.218;6.786;2023-05-19T12:21:41;21.00;97.00
10583;DHT22;33679;51.218;6.786;2023-05-19T12:24:15;21.20;97.00
10583;DHT22;33679;51.218;6.786;2023-05-19T12:26:47;21.20;96.80
10583;DHT22;33679;51.218;6.786;2023-05-19T12:29:20;21.20;96.70
10583;DHT22;33679;51.218;6.786;2023-05-19T12:31:53;21.20;96.70
10583;DHT22;33679;51.218;6.786;2023-05-19T12:34:25;21.10;96.90
10583;DHT22;33679;51.218;6.786;2023-05-19T12:37:01;21.00;96.70
10583;DHT22;33679;51.218;6.786;2023-05-19T12:39:38;21.10;96.70
10583;DHT22;33679;51.218;6.786;2023-05-19T12:42:12;21.10;96.70
10583;DHT22;33679;51.218;6.786;2023-05-19T12:44:48;21.10;96.90
10583;DHT22;33679;51.218;6.786;2023-05-19T12:47:21;21.10;97.00
10583;DHT22;33679;51.218;6.786;2023-05-19T12:50:00;21.10;97.10
10583;DHT22;33679;51.218;6.786;2023-05-19T12:52:34;21.20;96.90
10583;DHT22;33679;51.218;6.786;2023-05-19T12:55:20;21.20;96.80
10583;DHT22;33679;51.218;6.786;2023-05-19T12:57:57;21.30;96.80
10583;DHT22;33679;51.218;6.786;2023-05-19T13:00:30;21.30;96.90
10583;DHT22;33679;51.218;6.786;2023-05-19T13:03:04;21.30;97.10
10583;DHT22;33679;51.218;6.786;2023-05-19T13:05:38;21.30;96.80
10583;DHT22;33679;51.218;6.786;2023-05-19T13:08:14;21.30;96.80
10583;DHT22;33679;51.218;6.786;2023-05-19T13:10:48;21.40;96.70
10583;DHT22;33679;51.218;6.786;2023-05-19T13:13:22;21.50;96.50
10583;DHT22;33679;51.218;6.786;2023-05-19T13:15:56;21.60;96.40
10583;DHT22;33679;51.218;6.786;2023-05-19T13:18:29;21.50;96.30
10583;DHT22;33679;51.218;6.786;2023-05-19T13:21:05;21.60;96.40
10583;DHT22;33679;51.218;6.786;2023-05-19T13:23:38;21.60;96.50
10583;DHT22;33679;51.218;6.786;2023-05-19T13:26:12;21.60;96.60
10583;DHT22;33679;51.218;6.786;2023-05-19T13:28:44;21.80;96.30
10583;DHT22;33679;51.218;6.786;2023-05-19T13:31:18;21.80;96.10
10583;DHT22;33679;51.218;6.786;2023-05-19T13:33:50;21.80;96.20
10583;DHT22;33679;51.218;6.786;2023-05-19T13:36:24;21.80;96.20
10583;DHT22;33679;51.218;6.786;2023-05-19T13:38:57;21.80;96.20
10583;DHT22;33679;51.218;6.786;2023-05-19T13:41:33;21.80;96.20
10583;DHT22;33679;51.218;6.786;2023-05-19T13:44:06;21.70;96.20
10583;DHT22;33679;51.218;6.786;2023-05-19T13:46:40;21.70;96.30
10583;DHT22;33679;51.218;6.786;2023-05-19T13:49:12;21.80;96.40
10583;DHT22;33679;51.218;6.786;2023-05-19T13:51:45;21.80;96.30
10583;DHT22;33679;51.218;6.786;2023-05-19T13:54:18;21.80;96.20
10583;DHT22;33679;51.218;6.786;2023-05-19T13:56:52;21.90;96.20
10583;DHT22;33679;51.218;6.786;2023-05-19T13:59:25;21.90;96.30
10583;DHT22;33679;51.218;6.786;2023-05-19T14:01:58;22.00;96.20
10583;DHT22;33679;51.218;6.786;2023-05-19T14:04:30;22.10;96.20
10583;DHT22;33679;51.218;6.786;2023-05-19T14:07:04;22.10;96.20
10583;DHT22;33679;51.218;6.786;2023-05-19T14:09:37;22.20;96.10
10583;DHT22;33679;51.218;6.786;2023-05-19T14:12:11;22.10;96.10
10583;DHT22;33679;51.218;6.786;2023-05-19T14:14:43;22.20;96.10
10583;DHT22;33679;51.218;6.786;2023-05-19T14:17:18;22.20;96.10
10583;DHT22;33679;51.218;6.786;2023-05-19T14:19:53;22.20;95.90
10583;DHT22;33679;51.218;6.786;2023-05-19T14:22:25;22.20;95.80
10583;DHT22;33679;51.218;6.786;2023-05-19T14:24:57;22.20;95.90
10583;DHT22;33679;51.218;6.786;2023-05-19T14:27:32;22.30;95.80
10583;DHT22;33679;51.218;6.786;2023-05-19T14:30:05;22.30;95.50
10583;DHT22;33679;51.218;6.786;2023-05-19T14:32:39;22.30;95.60
10583;DHT22;33679;51.218;6.786;2023-05-19T14:35:14;22.30;95.30
10583;DHT22;33679;51.218;6.786;2023-05-19T14:37:46;22.40;95.20
10583;DHT22;33679;51.218;6.786;2023-05-19T14:40:19;22.40;95.40
10583;DHT22;33679;51.218;6.786;2023-05-19T14:42:53;22.40;95.40
10583;DHT22;33679;51.218;6.786;2023-05-19T14:45:26;22.40;95.20
10583;DHT22;33679;51.218;6.786;2023-05-19T14:47:58;22.30;95.20
10583;DHT22;33679;51.218;6.786;2023-05-19T14:50:31;22.30;94.80
10583;DHT22;33679;51.218;6.786;2023-05-19T14:53:06;22.30;94.80
10583;DHT22;33679;51.218;6.786;2023-05-19T14:55:38;22.30;94.90
10583;DHT22;33679;51.218;6.786;2023-05-19T14:58:12;22.30;94.80
10583;DHT22;33679;51.218;6.786;2023-05-19T15:00:47;22.30;94.70
10583;DHT22;33679;51.218;6.786;2023-05-19T15:03:19;22.30;94.50
10583;DHT22;33679;51.218;6.786;2023-05-19T15:05:53;22.30;94.40
10583;DHT22;33679;51.218;6.786;2023-05-19T15:08:26;22.30;94.60
10583;DHT22;33679;51.218;6.786;2023-05-19T15:11:00;22.20;94.70
10583;DHT22;33679;51.218;6.786;2023-05-19T15:13:37;22.30;94.50
10583;DHT22;33679;51.218;6.786;2023-05-19T15:16:12;22.30;94.20
10583;DHT22;33679;51.218;6.786;2023-05-19T15:18:45;22.40;94.20
10583;DHT22;33679;51.218;6.786;2023-05-19T15:21:17;22.40;93.90
10583;DHT22;33679;51.218;6.786;2023-05-19T15:23:49;22.40;94.00
10583;DHT22;33679;51.218;6.786;2023-05-19T15:26:22;22.50;93.70
10583;DHT22;33679;51.218;6.786;2023-05-19T15:28:56;22.60;93.70
10583;DHT22;33679;51.218;6.786;2023-05-19T15:31:29;22.60;93.50
10583;DHT22;33679;51.218;6.786;2023-05-19T15:34:01;22.60;93.40
10583;DHT22;33679;51.218;6.786;2023-05-19T15:36:33;22.60;93.40
10583;DHT22;33679;51.218;6.786;2023-05-19T15:39:05;22.50;93.40
10583;DHT22;33679;51.218;6.786;2023-05-19T15:41:39;22.50;93.40
10583;DHT22;33679;51.218;6.786;2023-05-19T15:44:18;22.50;93.30
10583;DHT22;33679;51.218;6.786;2023-05-19T15:46:54;22.50;93.50
10583;DHT22;33679;51.218;6.786;2023-05-19T15:49:27;22.50;93.30
10583;DHT22;33679;51.218;6.786;2023-05-19T15:51:59;22.50;92.80
10583;DHT22;33679;51.218;6.786;2023-05-19T15:54:32;22.50;92.90
10583;DHT22;33679;51.218;6.786;2023-05-19T15:57:05;22.50;92.80
10583;DHT22;33679;51.218;6.786;2023-05-19T15:59:40;22.40;93.00
10583;DHT22;33679;51.218;6.786;2023-05-19T16:02:14;22.40;93.30
10583;DHT22;33679;51.218;6.786;2023-05-19T16:04:49;22.40;92.80
10583;DHT22;33679;51.218;6.786;2023-05-19T16:07:22;22.40;92.90
10583;DHT22;33679;51.218;6.786;2023-05-19T16:09:58;22.40;92.70
10583;DHT22;33679;51.218;6.786;2023-05-19T16:12:31;22.40;92.50
10583;DHT22;33679;51.218;6.786;2023-05-19T16:15:06;22.40;92.50
10583;DHT22;33679;51.218;6.786;2023-05-19T16:17:38;22.40;92.60
10583;DHT22;33679;51.218;6.786;2023-05-19T16:20:11;22.40;92.60
10583;DHT22;33679;51.218;6.786;2023-05-19T16:22:47;22.40;92.40